• Join FlightAware (Why Join?)
  • Login
  • US Flag 
Rudolph Flight #1: Arrived! 
11:51PM EST


 

Airport Tracker/Info


-or-


 

Live Flight TrackerFlight Track Log ✈ FLG4262 ✈ 17-Nov-2013 ✈ KBGM - KDTW

Flight Track Log - Related Links

Times and Time Zones

All times are in EST time to prevent confusion due to time zone crossing. See the FLG4262 flight status page for this flight to view local times or setup timezone preferences in your user account.

Time Position Orientation Groundspeed Altitude Reporting Facility
EST Latitude Longitude Course Direction KTS MPH feet Rate Location/Type
06:25PM 42.1639 -75.9719 299° West 196 226 3,900  Level Cleveland Center
06:26PM 42.1594 -76.0161 262° West 134 154 5,500 2,280 Climbing New York Center
06:27PM 42.1761 -76.1097 284° West 178 205 7,500 2,340 Climbing New York Center
06:28PM 42.2053 -76.1989 294° West 221 254 10,200 1,920 Climbing New York Center
06:29PM 42.2315 -76.7714 289° West  Level Estimated
06:29PM 42.2592 -76.3700 293° West 310 357 12,400  Level Cleveland Center
06:30PM 42.2349 -76.9034 299° West  Level Estimated
06:30PM 42.2939 -76.4861 292° West 331 381 14,200  Level Cleveland Center
06:31PM 42.3281 -76.5944 293° West 331 381 16,000 1,560 Climbing Cleveland Center
06:32PM 42.3622 -76.7103 292° West 333 383 17,500 1,260 Climbing Cleveland Center
06:33PM 42.3978 -76.8278 292° West 338 389 18,700 1,440 Climbing Cleveland Center
06:34PM 42.4400 -76.9697 292° West 340 391 20,500 1,440 Climbing Cleveland Center
06:35PM 42.4761 -77.0861 293° West 339 390 21,700 1,020 Climbing Cleveland Center
06:36PM 42.5108 -77.2036 292° West 336 387 22,700 960 Climbing Cleveland Center
06:38PM 42.5469 -77.3242 292° West 345 397 23,700 600 Climbing Cleveland Center
06:39PM 42.5850 -77.4547 292° West 350 403 24,000 120 Climbing Cleveland Center
06:40PM 42.6236 -77.5850 292° West 366 421 24,000  Level Cleveland Center
06:41PM 42.6631 -77.7239 291° West 384 442 24,000  Level Cleveland Center
06:42PM 42.7081 -77.8744 292° West 409 471 24,000  Level Cleveland Center
06:43PM 42.7492 -78.0192 291° West 412 474 24,000  Level Cleveland Center
06:44PM 42.7894 -78.1611 291° West 405 466 24,000  Level Cleveland Center
06:45PM 42.8297 -78.3025 291° West 403 464 24,000  Level Cleveland Center
06:46PM 42.8703 -78.4439 291° West 402 463 24,000  Level Cleveland Center
06:47PM 42.9100 -78.5864 291° West 404 465 24,000  Level Cleveland Center
06:48PM 42.9636 -78.7517 294° West 399 459 24,000  Level Cleveland Center
06:49PM 43.0089 -78.8789 296° West 376 433 24,000  Level Cleveland Center
06:50PM 43.0333 -78.9667 291° West 380 437 24,000  Level Toronto Center
06:51PM 43.0833 -79.0833 300° West 380 437 24,000  Level Toronto Center
06:52PM 43.1333 -79.2167 297° West 390 449 24,000  Level Toronto Center
06:53PM 43.1667 -79.3667 287° West 390 449 24,000  Level Toronto Center
06:54PM 43.2000 -79.5000 289° West 390 449 24,000  Level Toronto Center
06:55PM 43.2000 -79.6500 270° West 370 426 24,000  Level Toronto Center
06:56PM 43.1833 -79.8000 261° West 370 426 24,000  Level Toronto Center
06:57PM 43.1667 -79.9333 260° West 370 426 24,000  Level Toronto Center
06:58PM 43.1667 -80.0667 270° West 370 426 24,000  Level Toronto Center
06:59PM 43.1500 -80.2000 260° West 370 426 24,000  Level Toronto Center
07:00PM 43.1500 -80.3333 270° West 370 426 24,000  Level Toronto Center
07:01PM 43.1333 -80.4833 261° West 370 426 24,000  Level Toronto Center
07:02PM 43.1167 -80.6333 261° West 370 426 24,000  Level Toronto Center
07:03PM 43.1167 -80.7667 270° West 380 437 24,000  Level Toronto Center
07:04PM 43.0833 -80.9167 253° West 380 437 24,000  Level Toronto Center
07:05PM 43.0833 -81.0500 270° West 370 426 24,000  Level Toronto Center
07:06PM 43.0667 -81.1833 260° West 370 426 24,000  Level Toronto Center
07:07PM 43.0500 -81.3167 260° West 360 414 24,000  Level Toronto Center
07:08PM 43.0500 -81.4500 270° West 370 426 24,000  Level Toronto Center
07:09PM 43.0333 -81.6167 262° West 370 426 24,000  Level Toronto Center
07:10PM 43.0333 -81.7500 270° West 370 426 24,000  Level Toronto Center
07:11PM 43.0167 -81.8833 260° West 380 437 24,000  Level Toronto Center
07:12PM 42.9833 -82.0333 253° West 380 437 24,000  Level Toronto Center
07:13PM 42.9833 -82.1667 270° West 350 403 24,000  Level Toronto Center
07:14PM 42.9667 -82.2833 259° West 320 368 24,000  Level Toronto Center
07:15PM 42.9667 -82.3833 270° West 310 357 24,000  Level Toronto Center
07:16PM 42.9500 -82.5333 261° West 320 368 24,100 -480 Climbing Toronto Center
07:16PM 42.9517 -82.6267 271° West 320 368 23,200 -1,080 Descending Cleveland Center
07:17PM 42.9533 -82.7503 271° West 333 383 22,200 -1,020 Descending Cleveland Center
07:18PM 42.9653 -82.8822 277° West 346 398 21,200 -1,020 Descending Cleveland Center
07:18PM 42.9656 -82.8808 75° East 347 399 21,200 -3,000 Level Cleveland Center
07:19PM 42.9333 -82.9761 245° Southwest 295 339 17,900 -3,360 Descending Cleveland Center
07:20PM 42.9094 -82.9858 197° South 285 328 17,100 -2,820 Descending Cleveland Center
07:21PM 42.8558 -83.0039 194° South 290 334 15,000 -3,000 Descending Cleveland Center
07:21PM 42.8408 -83.0078 191° South 291 335 14,400 -2,220 Descending Cleveland Center
07:22PM 42.7789 -83.0189 188° South 280 322 12,800 -2,100 Descending Cleveland Center
07:22PM 42.7625 -83.0200 183° South 251 289 12,300 -1,980 Descending Cleveland Center
07:23PM 42.7097 -83.0253 184° South 252 290 10,800 -1,920 Descending Cleveland Center
07:23PM 42.6928 -83.0275 186° South 245 282 10,400 -1,980 Descending Cleveland Center
07:24PM 42.6439 -83.0300 182° South 240 276 8,800 -1,980 Descending Cleveland Center
07:24PM 42.6275 -83.0328 187° South 252 290 8,400 -1,860 Descending Cleveland Center
07:25PM 42.5658 -83.0753 207° Southwest 220 253 6,600 -1,260 Descending Cleveland Center
07:26PM 42.5231 -83.1075 209° Southwest 218 251 6,000 -600 Descending Cleveland Center
07:26PM 42.5125 -83.1133 202° Southwest 220 253 6,000  Level Cleveland Center
07:27PM 42.4706 -83.1486 212° Southwest 219 252 6,000 -120 Level Cleveland Center
07:27PM 42.4656 -83.1519 206° Southwest 204 235 5,900 -1,080 Descending Cleveland Center
07:28PM 42.4211 -83.1856 209° Southwest 175 201 4,900 -960 Descending Cleveland Center
07:29PM 42.3853 -83.2125 209° Southwest 170 196 4,000 -840 Descending Cleveland Center
07:29PM 42.3767 -83.2189 209° Southwest 152 175 4,000 -420 Level Cleveland Center
07:30PM 42.3486 -83.2394 208° Southwest 153 176 3,600 -660 Descending Cleveland Center
07:30PM 42.3436 -83.2425 204° Southwest 163 188 3,400 -1,020 Descending Cleveland Center
07:31PM 42.3133 -83.2806 223° Southwest 153 176 2,600 -780 Descending Cleveland Center
07:32PM 42.2836 -83.3131 219° Southwest 108 124 1,800 -660 Descending Cleveland Center
07:33PM 42.2550 -83.3317 206° Southwest 116 133 1,300 -420 Descending Cleveland Center
07:34PM 42.2303 -83.3511 210° Southwest 120 138 1,000 -360 Descending Cleveland Center
07:36PM 42.2124 -83.3534 217° Southwest  Level Estimated
07:43PM 42.2124 -83.3534 217° Southwest  Level Estimated